Time;durP1;ratioP1;P1;durP2;ratioP2;P2;SDS_P1;SDS_P2;PMS_P1;PMS_P2;Temp;Humidity;BMP_temperature;BMP_pressure;BME280_temperature;BME280_humidity;BME280_pressure;Samples;Min_cycle;Max_cycle;Signal;HPM_P1;HPM_P2
2021/11/07 00:00:55;;;;;;;2.95;1.08;;;18.60;66.70;;;;;;5049140;28;20028;-86
2021/11/07 00:05:55;;;;;;;4.22;1.40;;;18.60;66.80;;;;;;5048936;28;20021;-85
2021/11/07 00:10:54;;;;;;;3.15;1.52;;;18.50;66.80;;;;;;5048129;28;20064;-85
2021/11/07 00:13:22;;;;;;;4.65;1.52;;;18.50;66.80;;;;;;5049519;28;20037;-85
2021/11/07 00:15:48;;;;;;;4.10;1.63;;;18.50;66.80;;;;;;5048059;28;20052;-86
2021/11/07 00:18:18;;;;;;;4.07;1.30;;;18.50;66.90;;;;;;5049370;28;20500;-85
2021/11/07 00:21:11;;;;;;;2.25;1.13;;;18.40;66.90;;;;;;5049064;28;20025;-86
2021/11/07 00:23:42;;;;;;;2.38;1.25;;;18.40;67.00;;;;;;5048625;28;20523;-85
2021/11/07 00:28:39;;;;;;;5.30;1.45;;;18.40;67.10;;;;;;5049066;28;20111;-86
2021/11/07 00:36:29;;;;;;;3.90;1.30;;;18.30;67.20;;;;;;5029708;28;20465;-87
2021/11/07 00:41:53;;;;;;;4.97;1.60;;;18.30;67.30;;;;;;5048664;28;20036;-86
2021/11/07 00:47:59;;;;;;;2.08;1.02;;;18.20;67.40;;;;;;5048994;28;20040;-86
2021/11/07 00:49:54;;;;;;;3.20;1.35;;;18.20;67.50;;;;;;5038168;28;20116;-86
2021/11/07 00:52:34;;;;;;;3.00;1.30;;;18.20;67.60;;;;;;5047662;28;20101;-86
2021/11/07 00:55:21;;;;;;;4.20;1.38;;;18.10;67.70;;;;;;5048611;28;20104;-86
2021/11/07 00:58:09;;;;;;;3.35;1.40;;;18.20;67.80;;;;;;5048171;28;20028;-86
2021/11/07 01:00:48;;;;;;;3.13;1.20;;;18.10;67.90;;;;;;5048399;28;20017;-86
2021/11/07 01:03:17;;;;;;;3.60;1.35;;;18.10;68.00;;;;;;5048777;28;20477;-85
2021/11/07 01:05:42;;;;;;;2.28;1.10;;;18.10;68.10;;;;;;5046974;28;20021;-84
2021/11/07 01:08:08;;;;;;;3.05;1.25;;;18.00;68.10;;;;;;5048687;28;20104;-84
2021/11/07 01:10:36;;;;;;;2.80;1.15;;;18.00;68.20;;;;;;5048083;28;20029;-85
2021/11/07 01:13:02;;;;;;;3.25;1.40;;;18.00;68.20;;;;;;5048295;28;20041;-85
2021/11/07 01:15:28;;;;;;;3.00;1.30;;;18.00;68.20;;;;;;5046843;28;20108;-85
2021/11/07 01:17:55;;;;;;;2.10;1.02;;;18.00;68.20;;;;;;5048675;28;20033;-85
2021/11/07 01:20:26;;;;;;;3.33;1.10;;;18.00;68.20;;;;;;5047223;28;20405;-84
2021/11/07 01:25:18;;;;;;;4.05;1.60;;;17.90;68.30;;;;;;5048591;28;20452;-84
2021/11/07 01:27:45;;;;;;;3.00;1.15;;;17.90;68.30;;;;;;5048093;28;20025;-85
2021/11/07 01:30:17;;;;;;;3.22;1.40;;;17.90;68.40;;;;;;5048249;28;20081;-85
2021/11/07 01:32:48;;;;;;;3.35;1.27;;;17.90;68.40;;;;;;5048127;28;20040;-85
2021/11/07 01:35:41;;;;;;;4.20;1.70;;;17.90;68.50;;;;;;5048025;28;20017;-85
2021/11/07 01:40:38;;;;;;;3.30;1.27;;;17.80;68.50;;;;;;5047776;28;20025;-85
2021/11/07 01:43:04;;;;;;;3.10;1.42;;;17.90;68.60;;;;;;5046311;28;20108;-85
2021/11/07 01:45:45;;;;;;;2.17;1.02;;;17.80;68.60;;;;;;5047562;28;20104;-86
2021/11/07 01:48:17;;;;;;;2.95;1.50;;;17.80;68.60;;;;;;5046541;28;20025;-85
2021/11/07 01:50:53;;;;;;;2.40;1.17;;;17.80;68.80;;;;;;5046208;28;20050;-86
2021/11/07 01:53:24;;;;;;;2.38;1.23;;;17.80;68.90;;;;;;5048092;28;20040;-86
2021/11/07 01:55:52;;;;;;;3.53;1.15;;;17.70;68.80;;;;;;5047772;28;20029;-87
2021/11/07 01:58:19;;;;;;;3.30;1.45;;;17.70;68.80;;;;;;5046606;28;20052;-87
2021/11/07 02:00:46;;;;;;;2.00;1.10;;;17.70;68.90;;;;;;5046392;28;20400;-87
2021/11/07 02:03:13;;;;;;;2.13;1.15;;;17.80;69.00;;;;;;5048237;28;20048;-86
2021/11/07 02:05:39;;;;;;;2.80;1.30;;;17.70;69.00;;;;;;5047805;28;20040;-87
2021/11/07 02:08:06;;;;;;;2.58;1.30;;;17.70;69.10;;;;;;5046360;28;20480;-87
2021/11/07 02:10:36;;;;;;;4.03;1.23;;;17.70;69.10;;;;;;5047362;28;20066;-86
2021/11/07 02:13:03;;;;;;;2.58;1.13;;;17.70;69.20;;;;;;5046130;28;20484;-87
2021/11/07 02:15:29;;;;;;;2.13;1.33;;;17.60;69.10;;;;;;5047557;28;20354;-87
2021/11/07 02:17:55;;;;;;;1.92;1.20;;;17.70;69.20;;;;;;5048126;28;20033;-87
2021/11/07 02:20:30;;;;;;;2.67;1.55;;;17.70;69.30;;;;;;5047864;28;20025;-87
2021/11/07 02:22:58;;;;;;;3.07;1.30;;;17.70;69.30;;;;;;5048122;28;20021;-87
2021/11/07 02:25:25;;;;;;;2.60;1.27;;;17.60;69.30;;;;;;5047737;28;20029;-86
2021/11/07 02:27:51;;;;;;;2.55;1.35;;;17.60;69.30;;;;;;5047450;28;20020;-87
2021/11/07 02:30:18;;;;;;;2.78;1.10;;;17.60;69.40;;;;;;5047510;28;20427;-87
2021/11/07 02:32:45;;;;;;;2.25;1.15;;;17.60;69.50;;;;;;5046013;28;20507;-86
2021/11/07 02:35:11;;;;;;;2.28;0.90;;;17.60;69.40;;;;;;5047568;28;20027;-86
2021/11/07 02:37:38;;;;;;;2.15;1.00;;;17.60;69.40;;;;;;5046080;28;20025;-87
2021/11/07 02:40:07;;;;;;;3.05;1.42;;;17.60;69.50;;;;;;5047115;28;20021;-87
2021/11/07 02:42:34;;;;;;;3.45;1.98;;;17.60;69.60;;;;;;5047360;28;20044;-86
2021/11/07 02:45:01;;;;;;;2.75;1.10;;;17.50;69.50;;;;;;5045789;28;20386;-86
2021/11/07 02:47:27;;;;;;;3.67;1.60;;;17.60;69.60;;;;;;5046785;28;20041;-87
2021/11/07 02:49:53;;;;;;;1.85;1.10;;;17.50;69.60;;;;;;5047306;28;20031;-87
2021/11/07 02:52:18;;;;;;;2.70;1.20;;;17.50;69.60;;;;;;5046002;28;20048;-86
2021/11/07 02:54:44;;;;;;;2.33;1.17;;;17.50;69.60;;;;;;5049083;28;20437;-85
2021/11/07 02:57:14;;;;;;;1.95;1.08;;;17.50;69.80;;;;;;5050578;28;20540;-84
2021/11/07 02:59:41;;;;;;;2.42;1.30;;;17.50;69.70;;;;;;5050224;28;20017;-84
2021/11/07 03:02:09;;;;;;;2.75;1.10;;;17.50;69.80;;;;;;5050612;28;20465;-87
2021/11/07 03:04:36;;;;;;;1.92;1.15;;;17.50;69.80;;;;;;5050343;28;20032;-86
2021/11/07 03:07:04;;;;;;;2.08;1.20;;;17.50;69.90;;;;;;5050222;28;20028;-86
2021/11/07 03:09:32;;;;;;;2.45;1.30;;;17.50;70.10;;;;;;5050422;28;20037;-86
2021/11/07 03:11:58;;;;;;;2.03;0.90;;;17.40;70.00;;;;;;5049074;28;20519;-85
2021/11/07 03:14:32;;;;;;;2.50;1.15;;;17.40;70.00;;;;;;5050645;28;20025;-85
2021/11/07 03:17:00;;;;;;;1.75;0.93;;;17.40;70.00;;;;;;5050363;28;20082;-85
2021/11/07 03:19:27;;;;;;;2.10;1.08;;;17.40;70.00;;;;;;5050389;28;20025;-85
2021/11/07 03:21:58;;;;;;;2.65;1.10;;;17.40;70.00;;;;;;5049018;27;20027;-85
2021/11/07 03:24:25;;;;;;;1.52;1.00;;;17.40;70.00;;;;;;5049204;27;20404;-85
2021/11/07 03:26:51;;;;;;;2.80;1.17;;;17.40;70.00;;;;;;5049961;28;20028;-86
2021/11/07 03:29:18;;;;;;;1.92;0.90;;;17.40;70.10;;;;;;5048786;28;20025;-85
2021/11/07 03:34:29;;;;;;;1.65;0.95;;;17.40;70.00;;;;;;5050124;28;20465;-86
2021/11/07 03:36:57;;;;;;;1.08;0.70;;;17.40;70.20;;;;;;5050436;28;20021;-86
2021/11/07 03:39:26;;;;;;;1.33;0.82;;;17.40;70.20;;;;;;5049111;28;20028;-86
2021/11/07 03:41:52;;;;;;;2.05;1.23;;;17.40;70.30;;;;;;5048975;27;20520;-86
2021/11/07 03:44:19;;;;;;;2.70;1.10;;;17.40;70.30;;;;;;5050090;28;20021;-86
2021/11/07 03:46:49;;;;;;;1.42;0.90;;;17.40;71.00;;;;;;5049512;28;20174;-87
2021/11/07 03:49:15;;;;;;;1.35;0.88;;;17.40;70.30;;;;;;5050166;28;20491;-87
2021/11/07 03:51:44;;;;;;;1.75;0.90;;;17.40;70.30;;;;;;5049573;28;20484;-87
2021/11/07 03:54:11;;;;;;;1.95;0.80;;;17.40;70.10;;;;;;5049851;28;20078;-87
2021/11/07 03:56:37;;;;;;;1.83;1.17;;;17.40;70.20;;;;;;5049578;28;20043;-86
2021/11/07 03:59:04;;;;;;;2.10;0.90;;;17.40;70.10;;;;;;5049791;28;20029;-86
2021/11/07 04:01:29;;;;;;;1.35;0.77;;;17.50;70.10;;;;;;5049318;28;20493;-86
2021/11/07 04:03:55;;;;;;;2.72;1.17;;;17.50;70.10;;;;;;5049762;28;20036;-87
2021/11/07 04:06:21;;;;;;;1.45;1.00;;;17.50;70.20;;;;;;5049661;28;20028;-87
2021/11/07 04:08:47;;;;;;;0.90;0.68;;;17.50;70.10;;;;;;5049320;28;20040;-87
2021/11/07 04:11:14;;;;;;;1.50;0.88;;;17.50;70.30;;;;;;5048282;28;20025;-85
2021/11/07 04:13:40;;;;;;;1.52;0.82;;;17.50;70.10;;;;;;5048985;28;20124;-86
2021/11/07 04:16:08;;;;;;;1.70;0.85;;;17.50;70.10;;;;;;5049364;28;20150;-85
2021/11/07 04:18:36;;;;;;;1.50;0.90;;;17.50;70.10;;;;;;5047897;28;20559;-86
2021/11/07 04:21:02;;;;;;;1.65;0.90;;;17.50;70.20;;;;;;5049236;28;20021;-86
2021/11/07 04:23:28;;;;;;;1.50;0.90;;;17.50;70.20;;;;;;5047696;28;20028;-86
2021/11/07 04:25:54;;;;;;;2.63;0.90;;;17.50;70.20;;;;;;5049376;28;20033;-86
2021/11/07 04:28:21;;;;;;;1.77;0.90;;;17.50;70.10;;;;;;5049298;28;20408;-86
2021/11/07 04:30:47;;;;;;;1.73;0.80;;;17.50;70.10;;;;;;5049035;28;20362;-87
2021/11/07 04:33:14;;;;;;;1.33;0.80;;;17.50;70.20;;;;;;5049051;28;20497;-87
2021/11/07 04:35:40;;;;;;;2.22;1.00;;;17.50;70.20;;;;;;5048713;28;20039;-86
2021/11/07 04:38:05;;;;;;;1.95;0.88;;;17.50;70.10;;;;;;5049153;28;20544;-86
2021/11/07 04:40:31;;;;;;;1.50;0.90;;;17.50;70.10;;;;;;5048920;28;20044;-87
2021/11/07 04:43:03;;;;;;;1.33;0.90;;;17.50;70.10;;;;;;5047937;28;20477;-88
2021/11/07 04:45:29;;;;;;;1.80;0.90;;;17.50;70.20;;;;;;5048834;28;20488;-88
2021/11/07 04:47:55;;;;;;;1.23;0.80;;;17.60;70.30;;;;;;5047853;28;20112;-85
2021/11/07 04:50:21;;;;;;;1.20;0.88;;;17.50;70.10;;;;;;5048934;28;20033;-87
2021/11/07 04:52:47;;;;;;;1.63;0.77;;;17.60;70.30;;;;;;5048632;28;20508;-86
2021/11/07 04:55:14;;;;;;;1.27;0.90;;;17.50;70.30;;;;;;5047529;28;20029;-86
2021/11/07 04:57:42;;;;;;;1.60;0.93;;;17.50;70.20;;;;;;5048662;28;20081;-87
2021/11/07 05:00:11;;;;;;;1.50;0.70;;;17.50;70.30;;;;;;5047595;28;20485;-86
2021/11/07 05:02:38;;;;;;;2.95;0.80;;;17.50;70.30;;;;;;5048598;28;20072;-86
2021/11/07 05:05:05;;;;;;;2.25;0.90;;;17.60;70.40;;;;;;5047727;28;20366;-86
2021/11/07 05:07:31;;;;;;;1.38;0.95;;;17.50;70.30;;;;;;5048254;28;20033;-85
2021/11/07 05:09:57;;;;;;;1.48;0.90;;;17.50;70.30;;;;;;5048429;28;20504;-85
2021/11/07 05:12:23;;;;;;;1.10;0.63;;;17.60;70.40;;;;;;5047527;28;20040;-85
2021/11/07 05:14:48;;;;;;;1.85;1.10;;;17.60;70.40;;;;;;5048364;28;20013;-85
2021/11/07 05:17:14;;;;;;;1.00;0.60;;;17.60;70.50;;;;;;5046397;28;20120;-86
2021/11/07 05:19:40;;;;;;;1.05;0.75;;;17.60;70.50;;;;;;5047223;28;20071;-85
2021/11/07 05:22:06;;;;;;;0.93;0.63;;;17.60;70.50;;;;;;5048439;28;20376;-85
2021/11/07 05:24:32;;;;;;;1.27;0.98;;;17.60;70.50;;;;;;5048077;28;20029;-85
2021/11/07 05:26:58;;;;;;;1.05;0.57;;;17.60;70.50;;;;;;5048439;28;20389;-85
2021/11/07 05:29:24;;;;;;;1.42;0.73;;;17.60;70.50;;;;;;5048736;28;20037;-86
2021/11/07 05:31:49;;;;;;;1.67;0.60;;;17.60;70.60;;;;;;5048043;28;20047;-85
2021/11/07 05:34:15;;;;;;;1.27;0.80;;;17.60;70.50;;;;;;5048357;28;20021;-86
2021/11/07 05:36:44;;;;;;;0.90;0.70;;;17.60;70.60;;;;;;5048147;28;20025;-86
2021/11/07 05:39:11;;;;;;;1.83;0.80;;;17.60;70.60;;;;;;5047965;28;20065;-87
2021/11/07 05:41:37;;;;;;;1.10;0.77;;;17.60;70.60;;;;;;5047954;28;20377;-87
2021/11/07 05:44:03;;;;;;;0.90;0.60;;;17.60;70.60;;;;;;5048200;28;20071;-87
2021/11/07 05:46:29;;;;;;;2.08;0.80;;;17.60;70.60;;;;;;5047629;28;20429;-86
2021/11/07 05:48:55;;;;;;;1.15;0.80;;;17.60;70.60;;;;;;5047238;28;20073;-86
2021/11/07 05:51:20;;;;;;;1.05;0.60;;;17.60;70.60;;;;;;5046906;28;20029;-86
2021/11/07 05:53:46;;;;;;;1.13;0.70;;;17.60;70.60;;;;;;5046579;28;20606;-86
2021/11/07 05:56:12;;;;;;;1.50;0.60;;;17.60;70.60;;;;;;5047042;28;20021;-85
2021/11/07 05:58:38;;;;;;;2.38;0.63;;;17.60;70.70;;;;;;5048045;28;20035;-87
2021/11/07 06:01:04;;;;;;;2.15;0.95;;;17.60;70.70;;;;;;5047878;28;20017;-87
2021/11/07 06:03:29;;;;;;;1.45;0.77;;;17.60;70.60;;;;;;5047681;28;20021;-87
2021/11/07 06:05:55;;;;;;;1.15;0.70;;;17.60;70.60;;;;;;5048280;28;20507;-87
2021/11/07 06:08:21;;;;;;;1.98;0.80;;;17.60;70.60;;;;;;5047972;28;20025;-87
2021/11/07 06:10:47;;;;;;;2.08;1.00;;;17.60;71.40;;;;;;5047722;28;20528;-86
2021/11/07 06:13:13;;;;;;;0.88;0.50;;;17.60;70.60;;;;;;5047906;28;20039;-86
2021/11/07 06:15:38;;;;;;;1.52;0.70;;;17.60;70.70;;;;;;5047859;28;20029;-87
2021/11/07 06:18:04;;;;;;;1.02;0.70;;;17.60;70.70;;;;;;5047923;28;20121;-87
2021/11/07 06:20:30;;;;;;;1.52;0.65;;;17.60;70.70;;;;;;5047335;28;20029;-86
2021/11/07 06:22:56;;;;;;;1.25;0.73;;;17.60;70.70;;;;;;5046767;28;20108;-86
2021/11/07 06:25:22;;;;;;;1.25;0.65;;;17.60;70.70;;;;;;5047694;28;20040;-86
2021/11/07 06:27:48;;;;;;;2.00;0.90;;;17.60;70.70;;;;;;5048528;28;20021;-86
2021/11/07 06:30:14;;;;;;;1.02;0.60;;;17.60;70.70;;;;;;5049899;28;20077;-88
2021/11/07 06:32:40;;;;;;;1.13;0.70;;;17.60;70.70;;;;;;5050768;28;20040;-88
2021/11/07 06:35:09;;;;;;;1.17;0.70;;;17.60;70.70;;;;;;5050988;28;20446;-87
2021/11/07 06:37:35;;;;;;;1.70;0.70;;;17.60;70.70;;;;;;5050493;28;20029;-87
2021/11/07 06:40:01;;;;;;;1.40;0.70;;;17.60;70.80;;;;;;5050853;28;20022;-87
2021/11/07 06:42:27;;;;;;;1.10;0.70;;;17.60;70.80;;;;;;5050772;28;20033;-88
2021/11/07 06:44:54;;;;;;;0.93;0.50;;;17.60;70.90;;;;;;5051013;28;20028;-88
2021/11/07 06:47:20;;;;;;;1.17;0.88;;;17.60;70.80;;;;;;5050647;28;20037;-88
2021/11/07 06:49:47;;;;;;;1.35;0.60;;;17.60;70.80;;;;;;5050708;28;20021;-88
2021/11/07 06:52:13;;;;;;;1.10;0.60;;;17.70;70.90;;;;;;5050393;28;20033;-85
2021/11/07 06:54:39;;;;;;;1.58;0.70;;;17.70;70.80;;;;;;5050480;28;20025;-86
2021/11/07 06:57:05;;;;;;;1.40;0.70;;;17.70;70.80;;;;;;5050892;28;20028;-86
2021/11/07 06:59:31;;;;;;;0.93;0.60;;;17.70;70.80;;;;;;5050369;28;20385;-86
2021/11/07 07:01:57;;;;;;;1.95;0.65;;;17.70;70.80;;;;;;5049486;28;20438;-86
2021/11/07 07:04:23;;;;;;;1.30;0.60;;;17.70;70.80;;;;;;5050657;28;20097;-86
2021/11/07 07:06:49;;;;;;;1.38;0.70;;;17.70;70.80;;;;;;5050081;28;20097;-85
2021/11/07 07:09:21;;;;;;;1.42;0.60;;;17.70;70.80;;;;;;5050575;28;20029;-86
2021/11/07 07:11:50;;;;;;;1.48;0.80;;;17.80;70.90;;;;;;5048917;28;20406;-85
2021/11/07 07:14:36;;;;;;;1.25;0.70;;;17.80;70.80;;;;;;5050514;28;20020;-84
2021/11/07 07:32:59;;;;;;;1.70;1.00;;;17.80;70.70;;;;;;5050500;28;20128;-86
2021/11/07 07:35:28;;;;;;;1.30;0.68;;;17.90;70.80;;;;;;5050625;28;20025;-84
2021/11/07 07:37:55;;;;;;;1.42;0.70;;;17.90;70.80;;;;;;5050398;28;20025;-85
2021/11/07 07:40:23;;;;;;;1.38;0.50;;;17.90;70.80;;;;;;5049753;28;20366;-85
2021/11/07 07:42:49;;;;;;;1.30;0.70;;;17.90;70.80;;;;;;5049969;28;20473;-84
2021/11/07 07:45:15;;;;;;;2.10;0.80;;;17.90;70.60;;;;;;5050034;28;20062;-84
2021/11/07 07:47:43;;;;;;;2.30;0.85;;;17.90;70.70;;;;;;5049818;28;20037;-84
2021/11/07 07:50:11;;;;;;;2.28;0.70;;;17.90;70.70;;;;;;5049983;28;20017;-85
2021/11/07 07:52:38;;;;;;;2.53;0.88;;;17.90;70.70;;;;;;5049289;28;20029;-84
2021/11/07 07:55:07;;;;;;;2.55;0.98;;;18.00;70.80;;;;;;5049824;28;20062;-84
2021/11/07 07:57:33;;;;;;;1.65;0.70;;;18.00;70.70;;;;;;5049379;28;20392;-84
2021/11/07 07:59:58;;;;;;;2.53;0.80;;;18.00;70.70;;;;;;5049577;28;20109;-82
2021/11/07 08:02:24;;;;;;;3.25;1.08;;;18.00;70.70;;;;;;5050005;28;20020;-83
2021/11/07 08:04:52;;;;;;;2.42;0.75;;;18.00;70.70;;;;;;5049472;28;20052;-85
2021/11/07 08:07:18;;;;;;;3.05;0.73;;;18.00;70.70;;;;;;5049321;28;20077;-83
2021/11/07 08:09:43;;;;;;;3.97;1.25;;;18.00;70.70;;;;;;5049454;28;20072;-87
2021/11/07 08:12:09;;;;;;;3.55;0.90;;;18.10;70.90;;;;;;5049377;28;20041;-87
2021/11/07 08:14:35;;;;;;;4.43;0.90;;;18.00;70.90;;;;;;5049328;28;20025;-87
2021/11/07 08:17:01;;;;;;;3.33;1.10;;;18.10;71.00;;;;;;5049320;28;20059;-87
2021/11/07 08:19:35;;;;;;;2.92;0.82;;;18.10;71.10;;;;;;5054120;28;20021;-90
2021/11/07 08:22:01;;;;;;;2.65;0.98;;;18.10;71.10;;;;;;5052125;28;20027;-85
2021/11/07 08:24:27;;;;;;;8.70;2.13;;;18.10;71.10;;;;;;5049433;28;20025;-85
2021/11/07 08:26:53;;;;;;;8.18;3.75;;;18.10;71.20;;;;;;5049434;28;20062;-84
2021/11/07 08:29:19;;;;;;;6.60;4.30;;;18.20;71.30;;;;;;5049759;28;20032;-84
2021/11/07 08:31:50;;;;;;;6.07;4.18;;;18.20;71.30;;;;;;5050219;28;20385;-84
2021/11/07 08:34:16;;;;;;;8.95;4.18;;;18.20;71.30;;;;;;5048953;28;20020;-84
2021/11/07 08:39:15;;;;;;;7.25;3.95;;;18.30;71.70;;;;;;5049040;28;20025;-82
2021/11/07 09:01:39;;;;;;;9.60;3.17;;;18.40;71.30;;;;;;5048902;28;20077;-80
2021/11/07 09:04:56;;;;;;;6.35;2.72;;;18.40;71.60;;;;;;5048767;28;20026;-81
2021/11/07 09:09:20;;;;;;;9.13;3.50;;;18.50;71.40;;;;;;5048780;28;20385;-82
2021/11/07 09:11:54;;;;;;;19.83;5.72;;;18.50;71.30;;;;;;5048390;28;20025;-81
2021/11/07 09:14:28;;;;;;;12.07;3.65;;;18.60;71.20;;;;;;5048444;28;20464;-81
2021/11/07 09:16:54;;;;;;;10.60;4.47;;;18.70;71.20;;;;;;5048400;28;20493;-81
2021/11/07 09:19:22;;;;;;;11.23;4.20;;;18.70;71.20;;;;;;5048635;28;20069;-80
2021/11/07 09:21:53;;;;;;;11.07;3.45;;;18.80;71.20;;;;;;5048098;28;20032;-80
2021/11/07 09:24:54;;;;;;;12.75;3.85;;;18.90;71.00;;;;;;5039393;28;20508;-80
2021/11/07 09:27:21;;;;;;;8.57;3.17;;;19.00;70.60;;;;;;5043941;28;20524;-80
2021/11/07 09:32:37;;;;;;;13.57;3.10;;;19.30;69.70;;;;;;5040195;28;20393;-80
2021/11/07 09:40:28;;;;;;;7.80;2.20;;;19.70;68.70;;;;;;5039542;28;20040;-81
2021/11/07 09:50:35;;;;;;;8.05;2.60;;;20.20;67.50;;;;;;5037116;28;20077;-80
2021/11/07 09:53:01;;;;;;;7.70;3.08;;;20.30;67.30;;;;;;5041881;28;20488;-78
2021/11/07 09:55:29;;;;;;;7.32;2.60;;;20.40;66.90;;;;;;5045696;28;20033;-82
2021/11/07 09:57:57;;;;;;;9.48;2.50;;;20.50;66.70;;;;;;5046273;28;20438;-84
2021/11/07 10:00:30;;;;;;;5.40;1.92;;;20.50;66.60;;;;;;5048243;28;20025;-79
2021/11/07 10:02:56;;;;;;;5.57;2.03;;;20.50;66.70;;;;;;5049659;28;20078;-81
2021/11/07 10:05:24;;;;;;;6.43;2.20;;;20.50;66.70;;;;;;5050769;28;20021;-82
2021/11/07 10:08:04;;;;;;;7.45;2.30;;;20.60;66.50;;;;;;5051322;28;20400;-80
2021/11/07 10:10:35;;;;;;;5.03;1.77;;;20.60;66.60;;;;;;5051502;28;20540;-77
2021/11/07 10:13:18;;;;;;;6.47;1.90;;;20.70;66.70;;;;;;5051402;28;20041;-77
2021/11/07 10:15:46;;;;;;;6.28;2.03;;;20.80;66.30;;;;;;5051045;28;20024;-76
2021/11/07 10:18:29;;;;;;;7.28;2.22;;;20.90;67.00;;;;;;5051410;28;20483;-77
2021/11/07 10:20:59;;;;;;;7.43;2.22;;;21.00;65.80;;;;;;5051207;28;20033;-76
2021/11/07 10:31:27;;;;;;;6.07;1.65;;;21.40;65.10;;;;;;5042647;28;20017;-78
2021/11/07 10:43:38;;;;;;;6.68;1.77;;;21.50;64.80;;;;;;5041618;28;20496;-79
2021/11/07 10:54:28;;;;;;;6.55;1.70;;;21.60;64.30;;;;;;5047779;28;20052;-87
2021/11/07 10:57:15;;;;;;;7.75;1.40;;;21.50;63.60;;;;;;5040386;28;20025;-85
2021/11/07 11:00:02;;;;;;;5.60;1.52;;;21.50;64.10;;;;;;5037738;28;20088;-83
2021/11/07 11:02:36;;;;;;;3.85;1.27;;;21.50;64.20;;;;;;5031309;28;20401;-75
2021/11/07 11:05:15;;;;;;;4.95;1.30;;;21.50;64.40;;;;;;5038159;28;20037;-83
2021/11/07 11:08:01;;;;;;;5.68;1.70;;;21.50;64.10;;;;;;5041913;28;20108;-85
2021/11/07 11:10:46;;;;;;;10.10;1.75;;;21.50;64.30;;;;;;5046060;28;20107;-84
2021/11/07 11:29:26;;;;;;;3.57;1.43;;;21.50;63.80;;;;;;5048301;28;20040;-83
2021/11/07 11:40:03;;;;;;;5.90;1.60;;;22.00;62.60;;;;;;5042902;28;20100;-83
2021/11/07 11:42:39;;;;;;;12.07;2.03;;;21.90;62.40;;;;;;5049900;28;20486;-84
2021/11/07 11:45:05;;;;;;;;;;;22.10;62.60;;;;;;5050613;28;20040;-82
2021/11/07 11:53:50;;;;;;;7.97;1.65;;;24.10;58.70;;;;;;5048160;28;20044;-82
2021/11/07 11:57:01;;;;;;;7.35;2.20;;;25.00;56.70;;;;;;5029635;28;20086;-84
2021/11/07 11:59:26;;;;;;;6.35;1.85;;;25.10;55.20;;;;;;5021841;28;20065;-83
2021/11/07 12:02:15;;;;;;;6.53;1.88;;;24.80;55.50;;;;;;5029982;28;20045;-79
2021/11/07 12:04:59;;;;;;;7.50;1.80;;;23.90;56.50;;;;;;5029364;28;20022;-78
2021/11/07 12:07:32;;;;;;;6.43;1.50;;;23.80;57.60;;;;;;5030038;28;20566;-79
2021/11/07 12:10:01;;;;;;;8.90;1.67;;;24.00;57.50;;;;;;5029659;28;20488;-80
2021/11/07 12:12:42;;;;;;;7.95;2.17;;;24.80;56.50;;;;;;5034692;28;20664;-83
2021/11/07 12:15:24;;;;;;;8.27;2.42;;;25.50;54.20;;;;;;5038425;28;20030;-83
2021/11/07 12:18:04;;;;;;;7.15;1.83;;;26.40;53.50;;;;;;5038223;28;20025;-83
2021/11/07 12:20:39;;;;;;;5.85;1.92;;;26.30;52.50;;;;;;5038400;28;20033;-82
2021/11/07 12:23:28;;;;;;;5.07;1.50;;;25.80;53.10;;;;;;5045350;28;20029;-83
2021/11/07 12:25:56;;;;;;;9.35;1.65;;;25.90;52.80;;;;;;5037153;28;20061;-83
2021/11/07 12:28:43;;;;;;;5.47;1.63;;;25.70;53.60;;;;;;5037873;28;20021;-85
2021/11/07 12:31:09;;;;;;;6.32;1.88;;;26.10;52.70;;;;;;5037479;28;20041;-84
2021/11/07 12:34:21;;;;;;;3.63;1.42;;;26.70;52.50;;;;;;5038354;28;20029;-85
2021/11/07 12:42:25;;;;;;;6.32;1.60;;;27.50;50.40;;;;;;5041487;28;20036;-84
2021/11/07 12:44:53;;;;;;;6.90;1.50;;;27.50;50.40;;;;;;5048748;28;20021;-82
2021/11/07 12:47:27;;;;;;;7.20;1.48;;;27.00;50.50;;;;;;5059047;28;20496;-82
2021/11/07 12:50:04;;;;;;;6.63;1.77;;;26.50;51.30;;;;;;5041736;28;20017;-84
2021/11/07 12:52:29;;;;;;;4.53;1.65;;;26.40;51.70;;;;;;5037671;28;20493;-86
2021/11/07 12:54:55;;;;;;;5.88;1.85;;;26.60;51.60;;;;;;5036538;28;20074;-84
2021/11/07 12:57:22;;;;;;;3.38;1.40;;;26.60;51.50;;;;;;5038141;28;20053;-87
2021/11/07 12:59:54;;;;;;;6.50;1.25;;;25.80;52.10;;;;;;5036192;28;20104;-85
2021/11/07 13:02:31;;;;;;;6.38;1.52;;;24.90;53.60;;;;;;5036564;28;20025;-84
2021/11/07 13:05:31;;;;;;;6.03;1.83;;;24.20;54.90;;;;;;5036237;28;20045;-82
2021/11/07 13:08:00;;;;;;;7.10;1.80;;;23.80;55.90;;;;;;5036768;28;20032;-82
2021/11/07 13:29:55;;;;;;;7.85;1.80;;;22.10;59.50;;;;;;5059388;28;20024;-84
2021/11/07 13:32:37;;;;;;;6.38;1.88;;;21.90;59.90;;;;;;5030601;28;20041;-84
2021/11/07 13:35:08;;;;;;;6.60;1.48;;;21.80;60.20;;;;;;5037768;28;20153;-83
2021/11/07 13:37:41;;;;;;;5.40;1.30;;;21.70;60.50;;;;;;5035725;28;20100;-84
2021/11/07 13:40:29;;;;;;;5.28;1.70;;;21.50;60.80;;;;;;5035710;28;20024;-84
2021/11/07 13:43:15;;;;;;;6.57;2.08;;;21.40;61.20;;;;;;5037109;28;20481;-83
2021/11/07 13:45:44;;;;;;;8.27;1.83;;;21.30;61.30;;;;;;5053150;28;20033;-83
2021/11/07 13:48:16;;;;;;;6.47;2.17;;;21.20;61.50;;;;;;5028268;28;20022;-83
2021/11/07 13:50:42;;;;;;;7.13;2.17;;;21.20;62.40;;;;;;5028117;28;20061;-84
2021/11/07 13:53:19;;;;;;;5.60;1.92;;;21.10;62.40;;;;;;5028170;28;20040;-87
2021/11/07 13:55:48;;;;;;;4.50;1.90;;;21.10;63.00;;;;;;5036801;28;20025;-84
2021/11/07 13:58:21;;;;;;;4.60;1.70;;;21.10;63.40;;;;;;5041248;28;20013;-81
2021/11/07 14:00:48;;;;;;;5.30;2.45;;;21.00;63.30;;;;;;5041618;28;20028;-82
2021/11/07 14:03:17;;;;;;;7.55;1.80;;;21.00;63.50;;;;;;5047999;28;20024;-84
2021/11/07 14:06:03;;;;;;;9.02;1.63;;;20.90;63.80;;;;;;5047399;28;20032;-83
2021/11/07 14:08:39;;;;;;;9.18;1.80;;;20.80;64.10;;;;;;5046843;28;20384;-83
2021/11/07 14:11:05;;;;;;;8.48;2.10;;;20.70;64.50;;;;;;5036651;28;20033;-85
2021/11/07 14:13:40;;;;;;;4.43;1.25;;;20.70;64.50;;;;;;5037942;28;20052;-84
2021/11/07 14:16:07;;;;;;;6.97;1.33;;;20.60;64.50;;;;;;5043412;28;20033;-85
2021/11/07 14:18:39;;;;;;;5.50;1.60;;;20.60;64.70;;;;;;5045637;28;20484;-85
2021/11/07 14:21:05;;;;;;;9.05;2.10;;;20.60;64.90;;;;;;5038019;28;20366;-83
2021/11/07 14:23:41;;;;;;;3.80;1.50;;;20.60;64.80;;;;;;5030824;28;20028;-83
2021/11/07 14:26:26;;;;;;;5.60;1.80;;;20.60;64.90;;;;;;5036172;28;20392;-87
2021/11/07 14:34:30;;;;;;;6.22;1.35;;;20.60;64.80;;;;;;5041050;28;20050;-80
2021/11/07 14:44:49;;;;;;;7.72;1.73;;;20.40;65.70;;;;;;5027210;28;20049;-79
2021/11/07 14:52:55;;;;;;;10.07;1.70;;;20.30;65.80;;;;;;5030780;28;20034;-81
2021/11/07 14:55:26;;;;;;;10.82;2.05;;;20.30;66.00;;;;;;5036102;28;20370;-81
2021/11/07 15:00:46;;;;;;;8.85;1.70;;;20.20;66.50;;;;;;5038417;28;20029;-81
2021/11/07 15:03:16;;;;;;;10.43;2.00;;;20.20;66.40;;;;;;5050504;28;20025;-83
2021/11/07 15:08:15;;;;;;;7.05;2.67;;;20.10;66.40;;;;;;5049661;28;20077;-83
2021/11/07 15:10:52;;;;;;;9.25;2.28;;;20.10;66.60;;;;;;5050063;28;20025;-79
2021/11/07 15:13:53;;;;;;;9.50;1.67;;;20.10;66.80;;;;;;5046094;28;20040;-82
2021/11/07 15:17:04;;;;;;;4.55;1.63;;;20.00;66.90;;;;;;5049200;28;20017;-82
2021/11/07 15:19:27;;;;;;;8.43;2.03;;;20.00;67.00;;;;;;5045243;28;20405;-82
2021/11/07 15:22:20;;;;;;;8.05;1.60;;;19.90;67.00;;;;;;5050595;28;20393;-82
2021/11/07 15:24:47;;;;;;;5.72;1.60;;;19.80;67.10;;;;;;5050129;28;20016;-79
2021/11/07 15:27:22;;;;;;;7.90;1.90;;;19.80;67.20;;;;;;5050364;28;20024;-78
2021/11/07 15:30:00;;;;;;;6.13;1.58;;;19.80;67.20;;;;;;5050226;28;20021;-77
2021/11/07 15:32:35;;;;;;;9.38;2.08;;;19.70;67.30;;;;;;5050448;28;20033;-77
2021/11/07 15:35:13;;;;;;;8.25;2.38;;;19.70;67.40;;;;;;5049755;28;20053;-80
2021/11/07 15:37:39;;;;;;;6.90;1.58;;;19.60;67.40;;;;;;5049836;28;20029;-78
2021/11/07 15:40:07;;;;;;;5.70;1.48;;;19.60;67.40;;;;;;5050303;28;20074;-81
2021/11/07 15:42:40;;;;;;;6.57;1.70;;;19.50;67.50;;;;;;5049652;28;20099;-82
2021/11/07 15:45:15;;;;;;;6.80;1.65;;;19.50;67.50;;;;;;5050026;28;20056;-79
2021/11/07 15:47:44;;;;;;;5.47;1.73;;;19.50;67.50;;;;;;5049738;28;20037;-80
2021/11/07 15:50:44;;;;;;;8.38;1.80;;;19.40;67.40;;;;;;5049802;28;20521;-79
2021/11/07 15:53:19;;;;;;;7.93;2.17;;;19.40;67.50;;;;;;5049904;28;20037;-79
2021/11/07 15:58:40;;;;;;;5.85;2.10;;;19.40;67.40;;;;;;5040866;28;20029;-79
2021/11/07 16:16:53;;;;;;;6.25;1.73;;;19.20;67.40;;;;;;5034961;28;20017;-80
2021/11/07 16:19:26;;;;;;;7.43;2.22;;;19.10;67.40;;;;;;5029236;28;20041;-81
2021/11/07 16:21:53;;;;;;;5.57;1.98;;;19.10;67.50;;;;;;5039462;28;20058;-80
2021/11/07 16:24:25;;;;;;;6.13;2.03;;;19.10;67.50;;;;;;5049600;28;20029;-81
2021/11/07 16:26:55;;;;;;;7.25;1.92;;;19.00;67.50;;;;;;5049128;28;20514;-82
2021/11/07 16:29:27;;;;;;;7.53;1.95;;;19.00;67.50;;;;;;5049269;28;20473;-81